Nathaniel B. Palmer — WBP3210 — position and weather

sailwx.info

Track history (hours):
 
Tides and Currents Weather Stations Pressure Air Temp Water Temp Dewpoint Dewpoint Depression Visibility Wind Speed Wind Dir Waves Ship Positions

Oceanographic research ship Nathaniel B. Palmer (USA)

Contact: Ethan Norris, ethan.norris.contractor@usap.gov

Detailed information on ship capabilities available from University of Delaware's Ocean Information Center and ARCUS's ALIAS (Arctic Logistics Information and Support) project.

Owner: OFFSHORE SERVICE VESSELS, Cut Off, LA. More information available from US FCC via Universal Licensing System and Coast Guard Vessel Documentation Center.

Last reported at 2019-Apr-24 21:00 UTC. Time now 2019-Apr-24 22:15 UTC.
Position S 53°06' W 070°54'.

Type: Other ship. MMSI: 366610000.

Wind from 080 at 3 knots

Barometer 1018.8 mb
Air temperature 9.9 ° C
Water temperature 3.3 ° C

Date/timePositionNaut miles runAvg speedWind from/ knotsBaromVisibWave heightAir tempDewpointWater temp
2019-Apr-24 21:00S 53°06' W 070°54'0 0.0 080 / 31018.8 9.9 3.3
2019-Apr-24 20:00S 53°06' W 070°54'0 0.0 100 / 111017.9 9.5 3.3
2019-Apr-24 19:00S 53°06' W 070°54'0 0.0 240 / 111017.1 12.5 3.3
2019-Apr-24 18:00S 53°06' W 070°54'0 0.0 260 / 111016.9 13.1 3.3
2019-Apr-24 17:00S 53°06' W 070°54'0 0.0 240 / 131016.7 12.5 3.3
2019-Apr-24 16:00S 53°06' W 070°54'0 0.0 240 / 121016.4 12.2 3.3
2019-Apr-24 15:00S 53°06' W 070°54'0 0.0 250 / 91015.8 11.8 3.3
2019-Apr-24 14:00S 53°06' W 070°54'0 0.0 260 / 101015.2 11.4 3.3
2019-Apr-24 13:00S 53°06' W 070°54'0 0.0 270 / 41014.6 10.3 3.3
2019-Apr-24 12:00S 53°06' W 070°54'0 0.0 300 / 71013.7 9.7 3.3
2019-Apr-24 11:00S 53°06' W 070°54'0 0.0 020 / 71013.3 8.6 3.3
2019-Apr-24 10:00S 53°06' W 070°54'0 0.0 360 / 81012.7 9.1 3.3
2019-Apr-24 09:00S 53°06' W 070°54'0 0.0 350 / 91012.5 8.8 3.3
2019-Apr-24 08:00S 53°06' W 070°54'0 0.0 020 / 91012.5 8.0 3.3
2019-Apr-24 07:00S 53°06' W 070°54'0 0.0 020 / 101012.5 8.4 3.3
2019-Apr-24 06:00S 53°06' W 070°54'0 0.0 020 / 51012.5 8.1 3.3
2019-Apr-24 05:00S 53°06' W 070°54'0 0.0 020 / 71012.5 8.3 3.3
2019-Apr-24 04:00S 53°06' W 070°54'0 0.0 020 / 81012.5 8.3 3.3
2019-Apr-24 03:00S 53°06' W 070°54'0 0.0 030 / 91012.8 8.6 3.3
2019-Apr-24 02:00S 53°06' W 070°54'0 0.0 050 / 61012.8 8.7 3.3
2019-Apr-24 01:00S 53°06' W 070°54'0 0.0 050 / 41012.8 9.6 3.3
2019-Apr-24 00:00S 53°06' W 070°54'0 0.0 060 / 41013.0 9.3 3.3
2019-Apr-23 23:00S 53°06' W 070°54'0 0.0 040 / 61013.7 9.0 3.3
2019-Apr-23 22:00S 53°06' W 070°54'0 0.0 340 / 61014.1 9.6 3.3
2019-Apr-23 21:00S 53°06' W 070°54'0 0.0 310 / 41014.6 9.8 3.3
2019-Apr-23 20:00S 53°06' W 070°54'0 0.0 310 / 91014.9 10.3 3.3
2019-Apr-23 19:00S 53°06' W 070°54'0 0.0 300 / 111015.3 10.3 3.3
2019-Apr-23 18:00S 53°06' W 070°54'0 0.0 300 / 81015.8 10.6 3.3
2019-Apr-23 17:00S 53°06' W 070°54'0 0.0 290 / 71016.1 10.1 3.3
2019-Apr-23 16:00S 53°06' W 070°54'0 0.0 290 / 81016.4 9.6 3.3
2019-Apr-23 15:00S 53°06' W 070°54'0 0.0 300 / 91017.0 9.1 3.3
2019-Apr-23 14:00S 53°06' W 070°54'0 0.0 280 / 121017.1 9.1 3.3
2019-Apr-23 13:00S 53°06' W 070°54'0 0.0 300 / 71017.2 8.6 3.3
2019-Apr-23 12:00S 53°06' W 070°54'0 0.0 300 / 71017.1 8.2 3.3
2019-Apr-23 11:00S 53°06' W 070°54'0 0.0 270 / 121017.2 8.1 3.3
2019-Apr-23 10:00S 53°06' W 070°54'0 0.0 290 / 91017.2 7.9 3.3
2019-Apr-23 09:00S 53°06' W 070°54'0 0.0 270 / 81016.8 7.6 3.3
2019-Apr-23 08:00S 53°06' W 070°54'0 0.0 280 / 91016.7 7.6 3.3
2019-Apr-23 07:00S 53°06' W 070°54'0 0.0 310 / 81016.4 7.8 3.3
2019-Apr-23 06:00S 53°06' W 070°54'0 0.0 260 / 91016.0 7.6 3.3
2019-Apr-23 05:00S 53°06' W 070°54'0 0.0 260 / 91016.1 7.2 3.3
2019-Apr-23 04:00S 53°06' W 070°54'0 0.0 270 / 101016.2 7.0 3.3
2019-Apr-23 03:00S 53°06' W 070°54'0 0.0 270 / 121016.1 7.0 3.3
2019-Apr-23 02:00S 53°06' W 070°54'0 0.0 290 / 61015.9 6.5 3.3
2019-Apr-23 01:00S 53°06' W 070°54'0 0.0 280 / 61015.0 6.9 3.3
2019-Apr-23 00:00S 53°06' W 070°54'0 0.0 240 / 41014.0 7.4 3.3
2019-Apr-22 23:00S 53°06' W 070°54'0 0.0 280 / 91013.0 8.0 3.3
2019-Apr-22 22:00S 53°06' W 070°54'0 0.0 250 / 141011.7 9.0 3.3
2019-Apr-22 21:00S 53°06' W 070°54'0 0.0 260 / 131010.7 9.8 3.3
2019-Apr-22 20:00S 53°06' W 070°54'0 0.0 260 / 131010.0 10.1 3.3
2019-Apr-22 19:00S 53°06' W 070°54'0 0.0 270 / 131009.4 10.2 3.3
2019-Apr-22 18:00S 53°06' W 070°54'0 0.0 290 / 71009.1 10.3 3.3
2019-Apr-22 17:00S 53°06' W 070°54'0 0.0 310 / 71009.0 9.9 3.3
2019-Apr-22 16:00S 53°06' W 070°54'0 0.0 350 / 61009.1 10.1 3.3
2019-Apr-22 15:00S 53°06' W 070°54'0 0.0 360 / 71009.0 10.1 3.3
2019-Apr-22 14:00S 53°06' W 070°54'0 0.0 350 / 51009.2 9.7 3.3
2019-Apr-22 13:00S 53°06' W 070°54'0 0.0 340 / 51009.2 8.6 3.3
2019-Apr-22 12:00S 53°06' W 070°54'0 0.0 010 / 31009.0 9.0 3.3
2019-Apr-22 11:00S 53°06' W 070°54'0 0.0 350 / 41009.4 7.9 3.3
2019-Apr-22 10:00S 53°06' W 070°54'0 0.0 020 / 61009.5 7.4 3.3
2019-Apr-22 09:00S 53°06' W 070°54'0 0.0 360 / 51009.5 7.7 3.3
2019-Apr-22 08:00S 53°06' W 070°54'0 0.0 1010.0 8.7 3.3
2019-Apr-22 07:00S 53°06' W 070°54'0 0.0 010 / 41010.7 10.2 3.3
2019-Apr-22 06:00S 53°06' W 070°54'0 0.0 280 / 71010.8 10.6 3.3
2019-Apr-22 05:00S 53°06' W 070°54'0 0.0 040 / 31011.2 9.7 3.3
2019-Apr-22 04:00S 53°06' W 070°54'0 0.0 230 / 21012.0 10.0 3.3
2019-Apr-22 03:00S 53°06' W 070°54'0 0.0 090 / 31012.6 9.0 3.3
2019-Apr-22 02:00S 53°06' W 070°54'0 0.0 070 / 41013.0 9.7 3.3
2019-Apr-22 01:00S 53°06' W 070°54'0 0.0 080 / 21013.5 9.7 3.3
2019-Apr-22 00:00S 53°06' W 070°54'0 0.0 250 / 61013.7 10.1 3.3
2019-Apr-21 23:00S 53°06' W 070°54'0 0.0 280 / 81013.8 10.2 3.3
2019-Apr-21 22:00S 53°06' W 070°54'0 0.0 230 / 31013.9 11.4 3.3
2019-Apr-21 21:00S 53°06' W 070°54'0 0.0 040 / 31013.9 11.8 3.3
2019-Apr-21 20:00S 53°06' W 070°54'0 0.0 050 / 51013.8 11.6 3.3
2019-Apr-21 19:00S 53°06' W 070°54'0 0.0 110 / 71013.8 12.6 3.3
2019-Apr-21 18:00S 53°06' W 070°54'0 0.0 230 / 151013.7 12.3 3.3
2019-Apr-21 17:00S 53°06' W 070°54'0 0.0 240 / 201013.6 11.3 3.3
2019-Apr-21 16:00S 53°06' W 070°54'0 0.0 230 / 121014.4 10.6 3.3
2019-Apr-21 15:00S 53°06' W 070°54'0 0.0 240 / 121014.2 10.3 3.3
2019-Apr-21 14:00S 53°06' W 070°54'0 0.0 250 / 111013.9 10.2 3.3
2019-Apr-21 13:00S 53°06' W 070°54'0 0.0 200 / 81013.8 10.2 3.3
2019-Apr-21 12:00S 53°06' W 070°54'0 0.0 260 / 121013.6 9.9 3.3
2019-Apr-21 11:00S 53°06' W 070°54'0 0.0 260 / 141013.6 9.7 3.3
2019-Apr-21 10:00S 53°06' W 070°54'0 0.0 270 / 171013.2 9.9 3.3
2019-Apr-21 09:00S 53°06' W 070°54'0 0.0 270 / 161012.9 10.3 3.3
2019-Apr-21 08:00S 53°06' W 070°54'0 0.0 280 / 121013.0 10.3 3.3
2019-Apr-21 07:00S 53°06' W 070°54'0 0.0 270 / 111013.2 9.8 3.3
2019-Apr-21 06:00S 53°06' W 070°54'0 0.0 270 / 141012.8 9.7 3.3
2019-Apr-21 05:00S 53°06' W 070°54'0 0.0 290 / 121013.0 9.9 3.3
2019-Apr-21 04:00S 53°06' W 070°54'0 0.0 280 / 111013.2 10.1 3.3
2019-Apr-21 03:00S 53°06' W 070°54'0 0.0 300 / 91013.4 10.2 3.3
2019-Apr-21 02:00S 53°06' W 070°54'0 0.0 270 / 101013.3 10.8 3.3
2019-Apr-21 01:00S 53°06' W 070°54'0 0.0 270 / 121013.1 11.0 3.3
2019-Apr-21 00:00S 53°06' W 070°54'0 0.0 260 / 171012.6 11.3 3.3
2019-Apr-20 23:00S 53°06' W 070°54'0 0.0 250 / 171012.1 11.6 3.3
2019-Apr-20 22:00S 53°06' W 070°54'0 0.0 240 / 141011.8 12.0 3.3
2019-Apr-20 21:00S 53°06' W 070°54'0 0.0 250 / 201011.3 12.6 3.3
2019-Apr-20 20:00S 53°06' W 070°54'0 0.0 250 / 211010.5 12.7 3.3
2019-Apr-20 19:00S 53°06' W 070°54'0 0.0 250 / 241010.0 12.5 3.3
2019-Apr-20 18:00S 53°06' W 070°54'0 0.0 250 / 231009.5 12.5 3.3
2019-Apr-20 17:00S 53°06' W 070°54'0 0.0 250 / 251009.3 12.5 3.3
2019-Apr-20 16:00S 53°06' W 070°54'0 0.0 250 / 151009.2 12.3 3.3
2019-Apr-20 15:00S 53°06' W 070°54'0 0.0 260 / 131009.1 11.9 3.3
2019-Apr-20 14:00S 53°06' W 070°54'0 0.0 270 / 121008.5 11.3 3.3
2019-Apr-20 13:00S 53°06' W 070°54'0 0.0 250 / 111008.6 10.6 3.3
2019-Apr-20 12:00S 53°06' W 070°54'0 0.0 240 / 211007.7 10.6 3.3
2019-Apr-20 11:00S 53°06' W 070°54'0 0.0 250 / 161007.5 10.8 3.3
2019-Apr-20 10:00S 53°06' W 070°54'0 0.0 260 / 131007.2 10.5 3.3
2019-Apr-20 09:00S 53°06' W 070°54'0 0.0 260 / 201006.7 10.2 3.3
2019-Apr-20 08:00S 53°06' W 070°54'0 0.0 260 / 241006.8 10.1 3.3
2019-Apr-20 07:00S 53°06' W 070°54'0 0.0 270 / 181007.7 9.4 3.3
2019-Apr-20 06:00S 53°06' W 070°54'0 0.0 270 / 81008.2 8.9 3.3
2019-Apr-20 05:00S 53°06' W 070°54'0 0.0 280 / 61008.9 8.9 3.3
2019-Apr-20 04:00S 53°06' W 070°54'0 0.0 280 / 61009.4 9.1 3.3
2019-Apr-20 03:00S 53°06' W 070°54'0 0.0 300 / 71010.0 9.2 3.3
2019-Apr-20 02:00S 53°06' W 070°54'0 0.0 270 / 111010.4 9.0 3.3
2019-Apr-20 01:00S 53°06' W 070°54'0 0.0 270 / 131010.5 9.0 3.3
2019-Apr-20 00:00S 53°06' W 070°54'0 0.0 260 / 181010.3 8.9 3.3
2019-Apr-19 23:00S 53°06' W 070°54'0 0.0 240 / 161010.0 9.1 3.3
2019-Apr-19 22:00S 53°06' W 070°54'0 0.0 200 / 101009.9 9.4 3.3
2019-Apr-19 21:00S 53°06' W 070°54'0 0.0 240 / 91009.8 9.7 3.3
2019-Apr-19 20:00S 53°06' W 070°54'0 0.0 260 / 111009.0 10.3 3.3
2019-Apr-19 19:00S 53°06' W 070°54'0 0.0 250 / 151008.1 11.4 3.3
2019-Apr-19 18:00S 53°06' W 070°54'0 0.0 250 / 171007.6 11.5 3.3
2019-Apr-19 17:00S 53°06' W 070°54'0 0.0 250 / 201006.7 11.6 3.3
2019-Apr-19 16:00S 53°06' W 070°54'0 0.0 240 / 181006.5 11.3 3.3
2019-Apr-19 15:00S 53°06' W 070°54'0 0.0 240 / 191005.7 10.9 3.3
2019-Apr-19 14:00S 53°06' W 070°54'0 0.0 230 / 161004.9 10.3 3.3
2019-Apr-19 13:00S 53°06' W 070°54'0 0.0 240 / 161003.8 9.6 3.3
2019-Apr-19 12:00S 53°06' W 070°54'0 0.0 240 / 121003.0 9.0 3.3
2019-Apr-19 11:00S 53°06' W 070°54'0 0.0 240 / 131002.2 8.6 3.3
2019-Apr-19 10:00S 53°06' W 070°54'0 0.0 250 / 81001.7 8.2 3.3
2019-Apr-19 09:00S 53°06' W 070°54'0 0.0 270 / 111000.6 7.7 3.3
2019-Apr-19 08:00S 53°06' W 070°54'0 0.0 260 / 141000.2 7.5 3.3
2019-Apr-19 07:00S 53°06' W 070°54'0 0.0 260 / 14999.9 7.3 3.3
2019-Apr-19 06:00S 53°06' W 070°54'0 0.0 260 / 121000.0 6.9 3.3
2019-Apr-19 05:00S 53°06' W 070°54'0 0.0 260 / 12999.8 6.7 3.3
2019-Apr-19 04:00S 53°06' W 070°54'0 0.0 270 / 11999.9 6.8 3.3
2019-Apr-19 03:00S 53°06' W 070°54'0 0.0 270 / 12999.7 6.8 3.3
2019-Apr-19 02:00S 53°06' W 070°54'0 0.0 270 / 131000.0 7.2 3.3
2019-Apr-19 01:00S 53°06' W 070°54'0 0.0 270 / 111000.3 7.3 3.3
2019-Apr-19 00:00S 53°06' W 070°54'0 0.0 020 / 41000.7 6.7 3.3
2019-Apr-18 23:00S 53°06' W 070°54'0 0.0 050 / 41000.7 6.3 3.3
2019-Apr-18 22:00S 53°06' W 070°54'0 0.0 050 / 41000.7 6.5 3.3
2019-Apr-18 21:00S 53°06' W 070°54'0 0.0 090 / 41000.7 6.7 3.3
2019-Apr-18 20:00S 53°06' W 070°54'0 0.0 120 / 51000.2 6.7 3.3
2019-Apr-18 19:00S 53°06' W 070°54'0 0.0 150 / 7999.8 6.1 3.3
2019-Apr-18 18:00S 53°06' W 070°54'0 0.0 170 / 12999.6 6.4 3.3
2019-Apr-18 17:00S 53°06' W 070°54'0 0.0 200 / 15999.2 6.7 3.3
2019-Apr-18 16:00S 53°06' W 070°54'0 0.0 210 / 12998.5 6.8 3.3
2019-Apr-18 15:00S 53°06' W 070°54'0 0.0 200 / 12998.0 6.2 3.3
2019-Apr-18 14:00S 53°06' W 070°54'0 0.0 240 / 10996.9 6.5 3.3
2019-Apr-18 13:00S 53°06' W 070°54'0 0.0 250 / 12995.7 6.7 3.3
2019-Apr-18 12:00S 53°06' W 070°54'0 0.0 240 / 12994.5 7.1 3.3
2019-Apr-18 11:00S 53°06' W 070°54'0 0.0 240 / 13993.6 7.4 3.3
2019-Apr-18 10:00S 53°06' W 070°54'0 0.0 240 / 13992.6 8.0 3.3
2019-Apr-18 09:00S 53°06' W 070°54'0 0.0 240 / 10991.4 8.0 3.3
2019-Apr-18 08:00S 53°06' W 070°54'0 0.0 260 / 22990.0 8.1 3.3
2019-Apr-18 07:00S 53°06' W 070°54'0 0.0 260 / 25989.4 8.0 3.3
2019-Apr-18 06:00S 53°06' W 070°54'0 0.0 260 / 25989.8 8.1 3.3
2019-Apr-18 05:00S 53°06' W 070°54'0 0.0 260 / 27989.8 7.8 3.3
2019-Apr-18 04:00S 53°06' W 070°54'0 0.0 260 / 26989.9 7.8 3.3
2019-Apr-18 03:00S 53°06' W 070°54'0 0.0 260 / 19990.9 7.6 3.3
2019-Apr-18 02:00S 53°06' W 070°54'0 0.0 250 / 14991.8 7.3 3.3
2019-Apr-18 01:00S 53°06' W 070°54'0 0.0 260 / 24991.5 7.3 3.3
2019-Apr-18 00:00S 53°06' W 070°54'0 0.0 280 / 20991.9 7.2 3.3
2019-Apr-17 23:00S 53°06' W 070°54'0 0.0 270 / 6993.6 6.6 3.3
2019-Apr-17 22:00S 53°06' W 070°54'0 0.0 320 / 5994.7 6.1 3.3
2019-Apr-17 21:00S 53°06' W 070°54'0 0.0 300 / 12995.5 6.0 3.3
2019-Apr-17 20:00S 53°06' W 070°54'0 0.0 270 / 16996.2 5.6 3.3
2019-Apr-17 19:00S 53°06' W 070°54'0 0.0 260 / 13997.5 6.0 3.3
2019-Apr-17 18:00S 53°06' W 070°54'0 0.0 270 / 18997.8 5.9 3.3
2019-Apr-17 17:00S 53°06' W 070°54'0 0.0 270 / 19998.1 5.4 3.3
2019-Apr-17 16:00S 53°06' W 070°54'0 0.0 280 / 17998.3 5.3 3.3
2019-Apr-17 15:00S 53°06' W 070°54'0 0.0 270 / 16998.4 4.9 3.3
2019-Apr-17 14:00S 53°06' W 070°54'0 0.0 250 / 18998.2 4.5 3.3
2019-Apr-17 13:00S 53°06' W 070°54'0 0.0 230 / 6997.7 4.4 3.3
2019-Apr-17 12:00S 53°06' W 070°54'0 0.0 260 / 8996.3 3.7 3.3
2019-Apr-17 11:00S 53°06' W 070°54'0 0.0 250 / 14994.8 3.7 3.3
2019-Apr-17 10:00S 53°06' W 070°54'0 0.0 230 / 14993.0 4.1 3.3
2019-Apr-17 09:00S 53°06' W 070°54'0 0.0 220 / 18990.7 4.3 3.3
2019-Apr-17 08:00S 53°06' W 070°54'0 0.0 250 / 15988.5 4.2 3.3
2019-Apr-17 07:00S 53°06' W 070°54'0 0.0 260 / 19985.9 4.5 3.3
2019-Apr-17 06:00S 53°06' W 070°54'0 0.0 270 / 20984.2 4.5 3.3
2019-Apr-17 05:00S 53°06' W 070°54'0 0.0 280 / 20983.1 4.2 3.3
2019-Apr-17 04:00S 53°06' W 070°54'0 0.0 330 / 10983.1 4.7 3.3
2019-Apr-17 03:00S 53°06' W 070°54'0 0.0 020 / 7983.8 5.0 3.3
2019-Apr-17 02:00S 53°06' W 070°54'0 0.0 020 / 6984.6 5.2 3.3
2019-Apr-17 01:00S 53°06' W 070°54'0 0.0 350 / 9985.6 5.3 3.3
2019-Apr-17 00:00S 53°06' W 070°54'0 0.0 040 / 11986.4 5.5 3.3
2019-Apr-16 23:00S 53°06' W 070°54'0 0.0 290 / 10986.6 5.1 3.3
2019-Apr-16 22:00S 53°06' W 070°54'0 0.0 280 / 13987.0 5.3 3.3
2019-Apr-16 21:00S 53°06' W 070°54'0 0.0 270 / 12987.7 5.5 3.3
2019-Apr-16 20:00S 53°06' W 070°54'0 0.0 290 / 20987.2 6.6 3.3
2019-Apr-16 19:00S 53°06' W 070°54'0 0.0 310 / 19987.3 7.1 3.3
2019-Apr-16 18:00S 53°06' W 070°54'0 0.0 310 / 18988.0 8.3 3.3
2019-Apr-16 17:00S 53°06' W 070°54'0 0.0 310 / 22989.3 7.7 3.3
2019-Apr-16 16:00S 53°06' W 070°54'0 0.0 310 / 14991.1 7.0 3.3
2019-Apr-16 15:00S 53°06' W 070°54'0 0.0 330 / 10992.2 6.3 3.3
2019-Apr-16 14:00S 53°06' W 070°54'0 0.0 993.0 6.1 3.3
2019-Apr-16 13:00S 53°06' W 070°54'0 0.0 020 / 5993.4 5.6 3.3
2019-Apr-16 12:00S 53°06' W 070°54'0 0.0 350 / 5993.3 5.5 3.3
2019-Apr-16 11:00S 53°06' W 070°54'0 0.0 300 / 4993.4 5.2 3.3
2019-Apr-16 10:00S 53°06' W 070°54'0 0.0 320 / 6993.4 5.4 3.3
2019-Apr-16 09:00S 53°06' W 070°54'0 0.0 040 / 4993.4 5.7 3.3
2019-Apr-16 08:00S 53°06' W 070°54'0 0.0 040 / 5993.3 5.6 3.3
2019-Apr-16 07:00S 53°06' W 070°54'0 0.0 020 / 4993.4 5.2 3.3
2019-Apr-16 06:00S 53°06' W 070°54'0 0.0 040 / 11993.8 5.3 3.3
2019-Apr-16 05:00S 53°06' W 070°54'0 0.0 310 / 7994.1 5.2 3.3
2019-Apr-16 04:00S 53°06' W 070°54'0 0.0 280 / 14994.3 5.0 3.3
2019-Apr-16 03:00S 53°06' W 070°54'0 0.0 270 / 15994.5 5.0 3.3
2019-Apr-16 02:00S 53°06' W 070°54'0 0.0 280 / 18994.6 5.0 3.3
2019-Apr-16 01:00S 53°06' W 070°54'0 0.0 290 / 16994.6 5.2 3.3
2019-Apr-16 00:00S 53°06' W 070°54'0 0.0 280 / 13994.6 5.6 3.3
2019-Apr-15 23:00S 53°06' W 070°54'0 0.0 290 / 18994.0 5.7 3.3
2019-Apr-15 22:00S 53°06' W 070°54'0 0.0 290 / 14994.0 6.1 3.3
2019-Apr-15 21:00S 53°06' W 070°54'0 0.0 290 / 15993.8 6.5 3.3
2019-Apr-15 20:00S 53°06' W 070°54'0 0.0 300 / 17993.3 7.2 3.3
2019-Apr-15 19:00S 53°06' W 070°54'0 0.0 290 / 19993.4 7.4 3.3
2019-Apr-15 18:00S 53°06' W 070°54'0 0.0 300 / 17993.2 8.4 3.3
2019-Apr-15 17:00S 53°06' W 070°54'0 0.0 300 / 19993.2 9.4 3.3
2019-Apr-15 16:00S 53°06' W 070°54'0 0.0 310 / 20993.3 10.8 3.3
2019-Apr-15 15:00S 53°06' W 070°54'0 0.0 300 / 14994.1 10.4 3.3
2019-Apr-15 14:00S 53°06' W 070°54'0 0.0 300 / 20993.9 10.6 3.3
2019-Apr-15 13:00S 53°06' W 070°54'0 0.0 330 / 12994.1 9.3 3.3
2019-Apr-15 12:00S 53°06' W 070°54'0 0.0 010 / 8995.4 8.2 3.3
2019-Apr-15 11:00S 53°06' W 070°54'0 0.0 340 / 6995.9 8.8 3.3
2019-Apr-15 10:00S 53°06' W 070°54'0 0.0 350 / 5996.2 9.2 3.3
2019-Apr-15 09:00S 53°06' W 070°54'0 0.0 020 / 5996.4 9.1 3.3
2019-Apr-15 08:00S 53°06' W 070°54'0 0.0 350 / 6996.7 9.2 3.3
2019-Apr-15 07:00S 53°06' W 070°54'0 0.0 350 / 9996.7 9.1 3.3
2019-Apr-15 06:00S 53°06' W 070°54'0 0.0 020 / 7996.5 9.6 3.3
2019-Apr-15 05:00S 53°06' W 070°54'0 0.0 996.2 9.2 3.3
2019-Apr-15 04:00S 53°06' W 070°54'0 0.0 310 / 8996.1 8.9 3.3
2019-Apr-15 03:00S 53°06' W 070°54'0 0.0 010 / 6996.0 8.0 3.3
2019-Apr-15 02:00S 53°06' W 070°54'0 0.0 010 / 6995.9 7.6 3.3
2019-Apr-15 01:00S 53°06' W 070°54'0 0.0 020 / 7995.8 7.2 3.3
2019-Apr-15 00:00S 53°06' W 070°54'0 0.0 010 / 7995.9 7.2 3.3
2019-Apr-14 23:00S 53°06' W 070°54'0 0.0 330 / 7996.0 6.6 3.3
2019-Apr-14 22:00S 53°06' W 070°54'0 0.0 330 / 6996.0 6.5 3.3
2019-Apr-14 21:00S 53°06' W 070°54'   300 / 8996.0 6.2 3.3
Track history (hours):
 
Tides and Currents Weather Stations Pressure Air Temp Water Temp Dewpoint Dewpoint Depression Visibility Wind Speed Wind Dir Waves Ship Positions

Oceanographic research ship Nathaniel B. Palmer (USA)

Contact: Ethan Norris, ethan.norris.contractor@usap.gov

Detailed information on ship capabilities available from University of Delaware's Ocean Information Center and ARCUS's ALIAS (Arctic Logistics Information and Support) project.

Owner: OFFSHORE SERVICE VESSELS, Cut Off, LA. More information available from US FCC via Universal Licensing System and Coast Guard Vessel Documentation Center.

Last reported at 2019-Apr-24 21:00 UTC. Time now 2019-Apr-24 22:15 UTC.
Position S 53°06' W 070°54'.

Type: Other ship. MMSI: 366610000.

Wind from 080 at 3 knots

Barometer 1018.8 mb
Air temperature 9.9 ° C
Water temperature 3.3 ° C

Date/timePositionNaut miles runAvg speedWind from/ knotsBaromVisibWave heightAir tempDewpointWater temp
2019-Apr-24 21:00S 53°06' W 070°54'0 0.0 080 / 31018.8 9.9 3.3
2019-Apr-24 20:00S 53°06' W 070°54'0 0.0 100 / 111017.9 9.5 3.3
2019-Apr-24 19:00S 53°06' W 070°54'0 0.0 240 / 111017.1 12.5 3.3
2019-Apr-24 18:00S 53°06' W 070°54'0 0.0 260 / 111016.9 13.1 3.3
2019-Apr-24 17:00S 53°06' W 070°54'0 0.0 240 / 131016.7 12.5 3.3
2019-Apr-24 16:00S 53°06' W 070°54'0 0.0 240 / 121016.4 12.2 3.3
2019-Apr-24 15:00S 53°06' W 070°54'0 0.0 250 / 91015.8 11.8 3.3
2019-Apr-24 14:00S 53°06' W 070°54'0 0.0 260 / 101015.2 11.4 3.3
2019-Apr-24 13:00S 53°06' W 070°54'0 0.0 270 / 41014.6 10.3 3.3
2019-Apr-24 12:00S 53°06' W 070°54'0 0.0 300 / 71013.7 9.7 3.3
2019-Apr-24 11:00S 53°06' W 070°54'0 0.0 020 / 71013.3 8.6 3.3
2019-Apr-24 10:00S 53°06' W 070°54'0 0.0 360 / 81012.7 9.1 3.3
2019-Apr-24 09:00S 53°06' W 070°54'0 0.0 350 / 91012.5 8.8 3.3
2019-Apr-24 08:00S 53°06' W 070°54'0 0.0 020 / 91012.5 8.0 3.3
2019-Apr-24 07:00S 53°06' W 070°54'0 0.0 020 / 101012.5 8.4 3.3
2019-Apr-24 06:00S 53°06' W 070°54'0 0.0 020 / 51012.5 8.1 3.3
2019-Apr-24 05:00S 53°06' W 070°54'0 0.0 020 / 71012.5 8.3 3.3
2019-Apr-24 04:00S 53°06' W 070°54'0 0.0 020 / 81012.5 8.3 3.3
2019-Apr-24 03:00S 53°06' W 070°54'0 0.0 030 / 91012.8 8.6 3.3
2019-Apr-24 02:00S 53°06' W 070°54'0 0.0 050 / 61012.8 8.7 3.3
2019-Apr-24 01:00S 53°06' W 070°54'0 0.0 050 / 41012.8 9.6 3.3
2019-Apr-24 00:00S 53°06' W 070°54'0 0.0 060 / 41013.0 9.3 3.3
2019-Apr-23 23:00S 53°06' W 070°54'0 0.0 040 / 61013.7 9.0 3.3
2019-Apr-23 22:00S 53°06' W 070°54'0 0.0 340 / 61014.1 9.6 3.3
2019-Apr-23 21:00S 53°06' W 070°54'0 0.0 310 / 41014.6 9.8 3.3
2019-Apr-23 20:00S 53°06' W 070°54'0 0.0 310 / 91014.9 10.3 3.3
2019-Apr-23 19:00S 53°06' W 070°54'0 0.0 300 / 111015.3 10.3 3.3
2019-Apr-23 18:00S 53°06' W 070°54'0 0.0 300 / 81015.8 10.6 3.3
2019-Apr-23 17:00S 53°06' W 070°54'0 0.0 290 / 71016.1 10.1 3.3
2019-Apr-23 16:00S 53°06' W 070°54'0 0.0 290 / 81016.4 9.6 3.3
2019-Apr-23 15:00S 53°06' W 070°54'0 0.0 300 / 91017.0 9.1 3.3
2019-Apr-23 14:00S 53°06' W 070°54'0 0.0 280 / 121017.1 9.1 3.3
2019-Apr-23 13:00S 53°06' W 070°54'0 0.0 300 / 71017.2 8.6 3.3
2019-Apr-23 12:00S 53°06' W 070°54'0 0.0 300 / 71017.1 8.2 3.3
2019-Apr-23 11:00S 53°06' W 070°54'0 0.0 270 / 121017.2 8.1 3.3
2019-Apr-23 10:00S 53°06' W 070°54'0 0.0 290 / 91017.2 7.9 3.3
2019-Apr-23 09:00S 53°06' W 070°54'0 0.0 270 / 81016.8 7.6 3.3
2019-Apr-23 08:00S 53°06' W 070°54'0 0.0 280 / 91016.7 7.6 3.3
2019-Apr-23 07:00S 53°06' W 070°54'0 0.0 310 / 81016.4 7.8 3.3
2019-Apr-23 06:00S 53°06' W 070°54'0 0.0 260 / 91016.0 7.6 3.3
2019-Apr-23 05:00S 53°06' W 070°54'0 0.0 260 / 91016.1 7.2 3.3
2019-Apr-23 04:00S 53°06' W 070°54'0 0.0 270 / 101016.2 7.0 3.3
2019-Apr-23 03:00S 53°06' W 070°54'0 0.0 270 / 121016.1 7.0 3.3
2019-Apr-23 02:00S 53°06' W 070°54'0 0.0 290 / 61015.9 6.5 3.3
2019-Apr-23 01:00S 53°06' W 070°54'0 0.0 280 / 61015.0 6.9 3.3
2019-Apr-23 00:00S 53°06' W 070°54'0 0.0 240 / 41014.0 7.4 3.3
2019-Apr-22 23:00S 53°06' W 070°54'0 0.0 280 / 91013.0 8.0 3.3
2019-Apr-22 22:00S 53°06' W 070°54'0 0.0 250 / 141011.7 9.0 3.3
2019-Apr-22 21:00S 53°06' W 070°54'0 0.0 260 / 131010.7 9.8 3.3
2019-Apr-22 20:00S 53°06' W 070°54'0 0.0 260 / 131010.0 10.1 3.3
2019-Apr-22 19:00S 53°06' W 070°54'0 0.0 270 / 131009.4 10.2 3.3
2019-Apr-22 18:00S 53°06' W 070°54'0 0.0 290 / 71009.1 10.3 3.3
2019-Apr-22 17:00S 53°06' W 070°54'0 0.0 310 / 71009.0 9.9 3.3
2019-Apr-22 16:00S 53°06' W 070°54'0 0.0 350 / 61009.1 10.1 3.3
2019-Apr-22 15:00S 53°06' W 070°54'0 0.0 360 / 71009.0 10.1 3.3
2019-Apr-22 14:00S 53°06' W 070°54'0 0.0 350 / 51009.2 9.7 3.3
2019-Apr-22 13:00S 53°06' W 070°54'0 0.0 340 / 51009.2 8.6 3.3
2019-Apr-22 12:00S 53°06' W 070°54'0 0.0 010 / 31009.0 9.0 3.3
2019-Apr-22 11:00S 53°06' W 070°54'0 0.0 350 / 41009.4 7.9 3.3
2019-Apr-22 10:00S 53°06' W 070°54'0 0.0 020 / 61009.5 7.4 3.3
2019-Apr-22 09:00S 53°06' W 070°54'0 0.0 360 / 51009.5 7.7 3.3
2019-Apr-22 08:00S 53°06' W 070°54'0 0.0 1010.0 8.7 3.3
2019-Apr-22 07:00S 53°06' W 070°54'0 0.0 010 / 41010.7 10.2 3.3
2019-Apr-22 06:00S 53°06' W 070°54'0 0.0 280 / 71010.8 10.6 3.3
2019-Apr-22 05:00S 53°06' W 070°54'0 0.0 040 / 31011.2 9.7 3.3
2019-Apr-22 04:00S 53°06' W 070°54'0 0.0 230 / 21012.0 10.0 3.3
2019-Apr-22 03:00S 53°06' W 070°54'0 0.0 090 / 31012.6 9.0 3.3
2019-Apr-22 02:00S 53°06' W 070°54'0 0.0 070 / 41013.0 9.7 3.3
2019-Apr-22 01:00S 53°06' W 070°54'0 0.0 080 / 21013.5 9.7 3.3
2019-Apr-22 00:00S 53°06' W 070°54'0 0.0 250 / 61013.7 10.1 3.3
2019-Apr-21 23:00S 53°06' W 070°54'0 0.0 280 / 81013.8 10.2 3.3
2019-Apr-21 22:00S 53°06' W 070°54'0 0.0 230 / 31013.9 11.4 3.3
2019-Apr-21 21:00S 53°06' W 070°54'0 0.0 040 / 31013.9 11.8 3.3
2019-Apr-21 20:00S 53°06' W 070°54'0 0.0 050 / 51013.8 11.6 3.3
2019-Apr-21 19:00S 53°06' W 070°54'0 0.0 110 / 71013.8 12.6 3.3
2019-Apr-21 18:00S 53°06' W 070°54'0 0.0 230 / 151013.7 12.3 3.3
2019-Apr-21 17:00S 53°06' W 070°54'0 0.0 240 / 201013.6 11.3 3.3
2019-Apr-21 16:00S 53°06' W 070°54'0 0.0 230 / 121014.4 10.6 3.3
2019-Apr-21 15:00S 53°06' W 070°54'0 0.0 240 / 121014.2 10.3 3.3
2019-Apr-21 14:00S 53°06' W 070°54'0 0.0 250 / 111013.9 10.2 3.3
2019-Apr-21 13:00S 53°06' W 070°54'0 0.0 200 / 81013.8 10.2 3.3
2019-Apr-21 12:00S 53°06' W 070°54'0 0.0 260 / 121013.6 9.9 3.3
2019-Apr-21 11:00S 53°06' W 070°54'0 0.0 260 / 141013.6 9.7 3.3
2019-Apr-21 10:00S 53°06' W 070°54'0 0.0 270 / 171013.2 9.9 3.3
2019-Apr-21 09:00S 53°06' W 070°54'0 0.0 270 / 161012.9 10.3 3.3
2019-Apr-21 08:00S 53°06' W 070°54'0 0.0 280 / 121013.0 10.3 3.3
2019-Apr-21 07:00S 53°06' W 070°54'0 0.0 270 / 111013.2 9.8 3.3
2019-Apr-21 06:00S 53°06' W 070°54'0 0.0 270 / 141012.8 9.7 3.3
2019-Apr-21 05:00S 53°06' W 070°54'0 0.0 290 / 121013.0 9.9 3.3
2019-Apr-21 04:00S 53°06' W 070°54'0 0.0 280 / 111013.2 10.1 3.3
2019-Apr-21 03:00S 53°06' W 070°54'0 0.0 300 / 91013.4 10.2 3.3
2019-Apr-21 02:00S 53°06' W 070°54'0 0.0 270 / 101013.3 10.8 3.3
2019-Apr-21 01:00S 53°06' W 070°54'0 0.0 270 / 121013.1 11.0 3.3
2019-Apr-21 00:00S 53°06' W 070°54'0 0.0 260 / 171012.6 11.3 3.3
2019-Apr-20 23:00S 53°06' W 070°54'0 0.0 250 / 171012.1 11.6 3.3
2019-Apr-20 22:00S 53°06' W 070°54'0 0.0 240 / 141011.8 12.0 3.3
2019-Apr-20 21:00S 53°06' W 070°54'0 0.0 250 / 201011.3 12.6 3.3
2019-Apr-20 20:00S 53°06' W 070°54'0 0.0 250 / 211010.5 12.7 3.3
2019-Apr-20 19:00S 53°06' W 070°54'0 0.0 250 / 241010.0 12.5 3.3
2019-Apr-20 18:00S 53°06' W 070°54'0 0.0 250 / 231009.5 12.5 3.3
2019-Apr-20 17:00S 53°06' W 070°54'0 0.0 250 / 251009.3 12.5 3.3
2019-Apr-20 16:00S 53°06' W 070°54'0 0.0 250 / 151009.2 12.3 3.3
2019-Apr-20 15:00S 53°06' W 070°54'0 0.0 260 / 131009.1 11.9 3.3
2019-Apr-20 14:00S 53°06' W 070°54'0 0.0 270 / 121008.5 11.3 3.3
2019-Apr-20 13:00S 53°06' W 070°54'0 0.0 250 / 111008.6 10.6 3.3
2019-Apr-20 12:00S 53°06' W 070°54'0 0.0 240 / 211007.7 10.6 3.3
2019-Apr-20 11:00S 53°06' W 070°54'0 0.0 250 / 161007.5 10.8 3.3
2019-Apr-20 10:00S 53°06' W 070°54'0 0.0 260 / 131007.2 10.5 3.3
2019-Apr-20 09:00S 53°06' W 070°54'0 0.0 260 / 201006.7 10.2 3.3
2019-Apr-20 08:00S 53°06' W 070°54'0 0.0 260 / 241006.8 10.1 3.3
2019-Apr-20 07:00S 53°06' W 070°54'0 0.0 270 / 181007.7 9.4 3.3
2019-Apr-20 06:00S 53°06' W 070°54'0 0.0 270 / 81008.2 8.9 3.3
2019-Apr-20 05:00S 53°06' W 070°54'0 0.0 280 / 61008.9 8.9 3.3
2019-Apr-20 04:00S 53°06' W 070°54'0 0.0 280 / 61009.4 9.1 3.3
2019-Apr-20 03:00S 53°06' W 070°54'0 0.0 300 / 71010.0 9.2 3.3
2019-Apr-20 02:00S 53°06' W 070°54'0 0.0 270 / 111010.4 9.0 3.3
2019-Apr-20 01:00S 53°06' W 070°54'0 0.0 270 / 131010.5 9.0 3.3
2019-Apr-20 00:00S 53°06' W 070°54'0 0.0 260 / 181010.3 8.9 3.3
2019-Apr-19 23:00S 53°06' W 070°54'0 0.0 240 / 161010.0 9.1 3.3
2019-Apr-19 22:00S 53°06' W 070°54'0 0.0 200 / 101009.9 9.4 3.3
2019-Apr-19 21:00S 53°06' W 070°54'0 0.0 240 / 91009.8 9.7 3.3
2019-Apr-19 20:00S 53°06' W 070°54'0 0.0 260 / 111009.0 10.3 3.3
2019-Apr-19 19:00S 53°06' W 070°54'0 0.0 250 / 151008.1 11.4 3.3
2019-Apr-19 18:00S 53°06' W 070°54'0 0.0 250 / 171007.6 11.5 3.3
2019-Apr-19 17:00S 53°06' W 070°54'0 0.0 250 / 201006.7 11.6 3.3
2019-Apr-19 16:00S 53°06' W 070°54'0 0.0 240 / 181006.5 11.3 3.3
2019-Apr-19 15:00S 53°06' W 070°54'0 0.0 240 / 191005.7 10.9 3.3
2019-Apr-19 14:00S 53°06' W 070°54'0 0.0 230 / 161004.9 10.3 3.3
2019-Apr-19 13:00S 53°06' W 070°54'0 0.0 240 / 161003.8 9.6 3.3
2019-Apr-19 12:00S 53°06' W 070°54'0 0.0 240 / 121003.0 9.0 3.3
2019-Apr-19 11:00S 53°06' W 070°54'0 0.0 240 / 131002.2 8.6 3.3
2019-Apr-19 10:00S 53°06' W 070°54'0 0.0 250 / 81001.7 8.2 3.3
2019-Apr-19 09:00S 53°06' W 070°54'0 0.0 270 / 111000.6 7.7 3.3
2019-Apr-19 08:00S 53°06' W 070°54'0 0.0 260 / 141000.2 7.5 3.3
2019-Apr-19 07:00S 53°06' W 070°54'0 0.0 260 / 14999.9 7.3 3.3
2019-Apr-19 06:00S 53°06' W 070°54'0 0.0 260 / 121000.0 6.9 3.3
2019-Apr-19 05:00S 53°06' W 070°54'0 0.0 260 / 12999.8 6.7 3.3
2019-Apr-19 04:00S 53°06' W 070°54'0 0.0 270 / 11999.9 6.8 3.3
2019-Apr-19 03:00S 53°06' W 070°54'0 0.0 270 / 12999.7 6.8 3.3
2019-Apr-19 02:00S 53°06' W 070°54'0 0.0 270 / 131000.0 7.2 3.3
2019-Apr-19 01:00S 53°06' W 070°54'0 0.0 270 / 111000.3 7.3 3.3
2019-Apr-19 00:00S 53°06' W 070°54'0 0.0 020 / 41000.7 6.7 3.3
2019-Apr-18 23:00S 53°06' W 070°54'0 0.0 050 / 41000.7 6.3 3.3
2019-Apr-18 22:00S 53°06' W 070°54'0 0.0 050 / 41000.7 6.5 3.3
2019-Apr-18 21:00S 53°06' W 070°54'0 0.0 090 / 41000.7 6.7 3.3
2019-Apr-18 20:00S 53°06' W 070°54'0 0.0 120 / 51000.2 6.7 3.3
2019-Apr-18 19:00S 53°06' W 070°54'0 0.0 150 / 7999.8 6.1 3.3
2019-Apr-18 18:00S 53°06' W 070°54'0 0.0 170 / 12999.6 6.4 3.3
2019-Apr-18 17:00S 53°06' W 070°54'0 0.0 200 / 15999.2 6.7 3.3
2019-Apr-18 16:00S 53°06' W 070°54'0 0.0 210 / 12998.5 6.8 3.3
2019-Apr-18 15:00S 53°06' W 070°54'0 0.0 200 / 12998.0 6.2 3.3
2019-Apr-18 14:00S 53°06' W 070°54'0 0.0 240 / 10996.9 6.5 3.3
2019-Apr-18 13:00S 53°06' W 070°54'0 0.0 250 / 12995.7 6.7 3.3
2019-Apr-18 12:00S 53°06' W 070°54'0 0.0 240 / 12994.5 7.1 3.3
2019-Apr-18 11:00S 53°06' W 070°54'0 0.0 240 / 13993.6 7.4 3.3
2019-Apr-18 10:00S 53°06' W 070°54'0 0.0 240 / 13992.6 8.0 3.3
2019-Apr-18 09:00S 53°06' W 070°54'0 0.0 240 / 10991.4 8.0 3.3
2019-Apr-18 08:00S 53°06' W 070°54'0 0.0 260 / 22990.0 8.1 3.3
2019-Apr-18 07:00S 53°06' W 070°54'0 0.0 260 / 25989.4 8.0 3.3
2019-Apr-18 06:00S 53°06' W 070°54'0 0.0 260 / 25989.8 8.1 3.3
2019-Apr-18 05:00S 53°06' W 070°54'0 0.0 260 / 27989.8 7.8 3.3
2019-Apr-18 04:00S 53°06' W 070°54'0 0.0 260 / 26989.9 7.8 3.3
2019-Apr-18 03:00S 53°06' W 070°54'0 0.0 260 / 19990.9 7.6 3.3
2019-Apr-18 02:00S 53°06' W 070°54'0 0.0 250 / 14991.8 7.3 3.3
2019-Apr-18 01:00S 53°06' W 070°54'0 0.0 260 / 24991.5 7.3 3.3
2019-Apr-18 00:00S 53°06' W 070°54'0 0.0 280 / 20991.9 7.2 3.3
2019-Apr-17 23:00S 53°06' W 070°54'0 0.0 270 / 6993.6 6.6 3.3
2019-Apr-17 22:00S 53°06' W 070°54'0 0.0 320 / 5994.7 6.1 3.3
2019-Apr-17 21:00S 53°06' W 070°54'0 0.0 300 / 12995.5 6.0 3.3
2019-Apr-17 20:00S 53°06' W 070°54'0 0.0 270 / 16996.2 5.6 3.3
2019-Apr-17 19:00S 53°06' W 070°54'0 0.0 260 / 13997.5 6.0 3.3
2019-Apr-17 18:00S 53°06' W 070°54'0 0.0 270 / 18997.8 5.9 3.3
2019-Apr-17 17:00S 53°06' W 070°54'0 0.0 270 / 19998.1 5.4 3.3
2019-Apr-17 16:00S 53°06' W 070°54'0 0.0 280 / 17998.3 5.3 3.3
2019-Apr-17 15:00S 53°06' W 070°54'0 0.0 270 / 16998.4 4.9 3.3
2019-Apr-17 14:00S 53°06' W 070°54'0 0.0 250 / 18998.2 4.5 3.3
2019-Apr-17 13:00S 53°06' W 070°54'0 0.0 230 / 6997.7 4.4 3.3
2019-Apr-17 12:00S 53°06' W 070°54'0 0.0 260 / 8996.3 3.7 3.3
2019-Apr-17 11:00S 53°06' W 070°54'0 0.0 250 / 14994.8 3.7 3.3
2019-Apr-17 10:00S 53°06' W 070°54'0 0.0 230 / 14993.0 4.1 3.3
2019-Apr-17 09:00S 53°06' W 070°54'0 0.0 220 / 18990.7 4.3 3.3
2019-Apr-17 08:00S 53°06' W 070°54'0 0.0 250 / 15988.5 4.2 3.3
2019-Apr-17 07:00S 53°06' W 070°54'0 0.0 260 / 19985.9 4.5 3.3
2019-Apr-17 06:00S 53°06' W 070°54'0 0.0 270 / 20984.2 4.5 3.3
2019-Apr-17 05:00S 53°06' W 070°54'0 0.0 280 / 20983.1 4.2 3.3
2019-Apr-17 04:00S 53°06' W 070°54'0 0.0 330 / 10983.1 4.7 3.3
2019-Apr-17 03:00S 53°06' W 070°54'0 0.0 020 / 7983.8 5.0 3.3
2019-Apr-17 02:00S 53°06' W 070°54'0 0.0 020 / 6984.6 5.2 3.3
2019-Apr-17 01:00S 53°06' W 070°54'0 0.0 350 / 9985.6 5.3 3.3
2019-Apr-17 00:00S 53°06' W 070°54'0 0.0 040 / 11986.4 5.5 3.3
2019-Apr-16 23:00S 53°06' W 070°54'0 0.0 290 / 10986.6 5.1 3.3
2019-Apr-16 22:00S 53°06' W 070°54'0 0.0 280 / 13987.0 5.3 3.3
2019-Apr-16 21:00S 53°06' W 070°54'0 0.0 270 / 12987.7 5.5 3.3
2019-Apr-16 20:00S 53°06' W 070°54'0 0.0 290 / 20987.2 6.6 3.3
2019-Apr-16 19:00S 53°06' W 070°54'0 0.0 310 / 19987.3 7.1 3.3
2019-Apr-16 18:00S 53°06' W 070°54'0 0.0 310 / 18988.0 8.3 3.3
2019-Apr-16 17:00S 53°06' W 070°54'0 0.0 310 / 22989.3 7.7 3.3
2019-Apr-16 16:00S 53°06' W 070°54'0 0.0 310 / 14991.1 7.0 3.3
2019-Apr-16 15:00S 53°06' W 070°54'0 0.0 330 / 10992.2 6.3 3.3
2019-Apr-16 14:00S 53°06' W 070°54'0 0.0 993.0 6.1 3.3
2019-Apr-16 13:00S 53°06' W 070°54'0 0.0 020 / 5993.4 5.6 3.3
2019-Apr-16 12:00S 53°06' W 070°54'0 0.0 350 / 5993.3 5.5 3.3
2019-Apr-16 11:00S 53°06' W 070°54'0 0.0 300 / 4993.4 5.2 3.3
2019-Apr-16 10:00S 53°06' W 070°54'0 0.0 320 / 6993.4 5.4 3.3
2019-Apr-16 09:00S 53°06' W 070°54'0 0.0 040 / 4993.4 5.7 3.3
2019-Apr-16 08:00S 53°06' W 070°54'0 0.0 040 / 5993.3 5.6 3.3
2019-Apr-16 07:00S 53°06' W 070°54'0 0.0 020 / 4993.4 5.2 3.3
2019-Apr-16 06:00S 53°06' W 070°54'0 0.0 040 / 11993.8 5.3 3.3
2019-Apr-16 05:00S 53°06' W 070°54'0 0.0 310 / 7994.1 5.2 3.3
2019-Apr-16 04:00S 53°06' W 070°54'0 0.0 280 / 14994.3 5.0 3.3
2019-Apr-16 03:00S 53°06' W 070°54'0 0.0 270 / 15994.5 5.0 3.3
2019-Apr-16 02:00S 53°06' W 070°54'0 0.0 280 / 18994.6 5.0 3.3
2019-Apr-16 01:00S 53°06' W 070°54'0 0.0 290 / 16994.6 5.2 3.3
2019-Apr-16 00:00S 53°06' W 070°54'0 0.0 280 / 13994.6 5.6 3.3
2019-Apr-15 23:00S 53°06' W 070°54'0 0.0 290 / 18994.0 5.7 3.3
2019-Apr-15 22:00S 53°06' W 070°54'0 0.0 290 / 14994.0 6.1 3.3
2019-Apr-15 21:00S 53°06' W 070°54'0 0.0 290 / 15993.8 6.5 3.3
2019-Apr-15 20:00S 53°06' W 070°54'0 0.0 300 / 17993.3 7.2 3.3
2019-Apr-15 19:00S 53°06' W 070°54'0 0.0 290 / 19993.4 7.4 3.3
2019-Apr-15 18:00S 53°06' W 070°54'0 0.0 300 / 17993.2 8.4 3.3
2019-Apr-15 17:00S 53°06' W 070°54'0 0.0 300 / 19993.2 9.4 3.3
2019-Apr-15 16:00S 53°06' W 070°54'0 0.0 310 / 20993.3 10.8 3.3
2019-Apr-15 15:00S 53°06' W 070°54'0 0.0 300 / 14994.1 10.4 3.3
2019-Apr-15 14:00S 53°06' W 070°54'0 0.0 300 / 20993.9 10.6 3.3
2019-Apr-15 13:00S 53°06' W 070°54'0 0.0 330 / 12994.1 9.3 3.3
2019-Apr-15 12:00S 53°06' W 070°54'0 0.0 010 / 8995.4 8.2 3.3
2019-Apr-15 11:00S 53°06' W 070°54'0 0.0 340 / 6995.9 8.8 3.3
2019-Apr-15 10:00S 53°06' W 070°54'0 0.0 350 / 5996.2 9.2 3.3
2019-Apr-15 09:00S 53°06' W 070°54'0 0.0 020 / 5996.4 9.1 3.3
2019-Apr-15 08:00S 53°06' W 070°54'0 0.0 350 / 6996.7 9.2 3.3
2019-Apr-15 07:00S 53°06' W 070°54'0 0.0 350 / 9996.7 9.1 3.3
2019-Apr-15 06:00S 53°06' W 070°54'0 0.0 020 / 7996.5 9.6 3.3
2019-Apr-15 05:00S 53°06' W 070°54'0 0.0 996.2 9.2 3.3
2019-Apr-15 04:00S 53°06' W 070°54'0 0.0 310 / 8996.1 8.9 3.3
2019-Apr-15 03:00S 53°06' W 070°54'0 0.0 010 / 6996.0 8.0 3.3
2019-Apr-15 02:00S 53°06' W 070°54'0 0.0 010 / 6995.9 7.6 3.3
2019-Apr-15 01:00S 53°06' W 070°54'0 0.0 020 / 7995.8 7.2 3.3
2019-Apr-15 00:00S 53°06' W 070°54'0 0.0 010 / 7995.9 7.2 3.3
2019-Apr-14 23:00S 53°06' W 070°54'0 0.0 330 / 7996.0 6.6 3.3
2019-Apr-14 22:00S 53°06' W 070°54'0 0.0 330 / 6996.0 6.5 3.3
2019-Apr-14 21:00S 53°06' W 070°54'   300 / 8996.0 6.2 3.3

Dump ship's entire track history